Time;durP1;ratioP1;P1;durP2;ratioP2;P2;SDS_P1;SDS_P2;PMS_P1;PMS_P2;Temp;Humidity;BMP_temperature;BMP_pressure;BME280_temperature;BME280_humidity;BME280_pressure;Samples;Min_cycle;Max_cycle;Signal;HPM_P1;HPM_P2
2022/12/17 13:06:28;;;;;;;;;;;;;;;;;;4982276;28;19914;-78
2022/12/17 13:09:15;;;;;;;;;;;;;;;;;;4982442;28;19929;-76
2022/12/17 13:12:02;;;;;;;;;;;;;;;;;;5034607;28;19920;-76
2022/12/17 13:14:48;;;;;;;;;;;;;;;;;;5034561;28;19921;-75
2022/12/17 13:17:35;;;;;;;;;;;;;;;;;;5035350;28;19913;-77
2022/12/17 13:20:21;;;;;;;;;;;;;;;;;;5029488;28;19920;-80
2022/12/17 13:23:08;;;;;;;;;;;;;;;;;;5037582;28;19932;-78
2022/12/17 13:25:54;;;;;;;;;;;;;;;;;;5033367;28;19924;-76
2022/12/17 13:28:41;;;;;;;;;;;;;;;;;;5042104;28;19959;-81
2022/12/17 13:31:27;;;;;;;;;;;;;;;;;;5027263;28;19924;-82
2022/12/17 13:34:14;;;;;;;;;;;;;;;;;;5043695;28;19939;-80
2022/12/17 13:37:00;;;;;;;;;;;;;;;;;;5035399;28;19913;-85
2022/12/17 13:39:47;;;;;;;;;;;;;;;;;;5017518;28;19924;-81
2022/12/17 13:42:33;;;;;;;;;;;;;;;;;;5035277;28;19924;-82
2022/12/17 13:45:20;;;;;;;;;;;;;;;;;;5042987;28;19924;-80
2022/12/17 13:48:06;;;;;;;;;;;;;;;;;;5037718;28;20399;-80
2022/12/17 13:50:53;;;;;;;;;;;;;;;;;;5028194;28;19909;-83
2022/12/17 13:53:39;;;;;;;;;;;;;;;;;;5039407;28;19940;-79
2022/12/17 13:56:26;;;;;;;;;;;;;;;;;;5043774;28;20402;-77
2022/12/17 13:59:12;;;;;;;;;;;;;;;;;;5032366;28;20365;-77
2022/12/17 14:01:59;;;;;;;;;;;;;;;;;;5040732;28;20394;-81
2022/12/17 14:04:46;;;;;;;;;;;;;;;;;;5045107;28;19935;-82
2022/12/17 14:07:32;;;;;;;;;;;;;;;;;;5042988;28;19962;-81
2022/12/17 14:10:19;;;;;;;;;;;;;;;;;;5047945;28;19921;-81
2022/12/17 14:13:05;;;;;;;;;;;;;;;;;;5044557;28;19939;-79
2022/12/17 14:15:52;;;;;;;;;;;;;;;;;;5026673;28;19913;-79
2022/12/17 14:18:38;;;;;;;;;;;;;;;;;;5026711;28;20448;-79
2022/12/17 14:21:25;;;;;;;;;;;;;;;;;;5030727;28;19912;-80
2022/12/17 14:24:11;;;;;;;;;;;;;;;;;;5036417;28;20251;-79
2022/12/17 14:26:58;;;;;;;;;;;;;;;;;;5045392;28;20293;-82
2022/12/17 14:29:45;;;;;;;;;;;;;;;;;;5032250;28;19912;-81
2022/12/17 14:32:31;;;;;;;;;;;;;;;;;;5043715;28;20377;-79
2022/12/17 14:35:18;;;;;;;;;;;;;;;;;;5044618;28;19921;-83
2022/12/17 14:38:04;;;;;;;;;;;;;;;;;;5037766;28;19920;-83
2022/12/17 14:40:51;;;;;;;;;;;;;;;;;;5032871;28;19956;-83
2022/12/17 14:43:37;;;;;;;;;;;;;;;;;;5038194;28;19920;-81
2022/12/17 14:46:24;;;;;;;;;;;;;;;;;;5040800;28;20261;-79
2022/12/17 14:49:10;;;;;;;;;;;;;;;;;;5037289;28;19923;-79
2022/12/17 14:51:58;;;;;;;;;;;;;;;;;;5037879;28;19959;-82
2022/12/17 14:54:45;;;;;;;;;;;;;;;;;;5028234;28;19927;-81
2022/12/17 14:57:32;;;;;;;;;;;;;;;;;;5038191;28;20297;-80
2022/12/17 15:00:18;;;;;;;;;;;;;;;;;;5039402;28;19921;-79
2022/12/17 15:03:05;;;;;;;;;;;;;;;;;;5038058;28;19944;-82
2022/12/17 15:05:52;;;;;;;;;;;;;;;;;;5037563;28;19912;-79
2022/12/17 15:08:38;;;;;;;;;;;;;;;;;;5040097;28;19940;-79
2022/12/17 15:11:25;;;;;;;;;;;;;;;;;;5042863;28;19917;-80
2022/12/17 15:14:11;;;;;;;;;;;;;;;;;;5041408;28;19909;-80
2022/12/17 15:16:59;;;;;;;;;;;;;;;;;;5032397;28;20011;-78
2022/12/17 15:19:46;;;;;;;;;;;;;;;;;;5033708;28;19917;-78
2022/12/17 15:22:32;;;;;;;;;;;;;;;;;;5030857;28;20118;-79
2022/12/17 15:25:19;;;;;;;;;;;;;;;;;;5042660;28;19924;-77
2022/12/17 15:28:05;;;;;;;;;;;;;;;;;;5045030;28;19912;-74
2022/12/17 15:30:52;;;;;;;;;;;;;;;;;;5035178;28;20381;-76
2022/12/17 15:33:38;;;;;;;;;;;;;;;;;;5035058;28;19955;-73
2022/12/17 15:36:25;;;;;;;;;;;;;;;;;;5042067;28;19913;-75
2022/12/17 15:39:11;;;;;;;;;;;;;;;;;;5041006;28;19923;-75
2022/12/17 15:45:03;;;;;;;;;;;;;;;;;;5042825;28;19928;-76
2022/12/17 15:47:50;;;;;;;;;;;;;;;;;;5042969;28;19913;-77
2022/12/17 15:50:36;;;;;;;;;;;;;;;;;;5040229;28;20391;-77
2022/12/17 15:53:23;;;;;;;;;;;;;;;;;;5039294;28;19913;-77
2022/12/17 15:56:09;;;;;;;;;;;;;;;;;;5036196;28;19923;-75
2022/12/17 15:58:56;;;;;;;;;;;;;;;;;;5041187;28;19923;-75
2022/12/17 16:01:43;;;;;;;;;;;;;;;;;;5036613;28;19924;-78
2022/12/17 16:04:29;;;;;;;;;;;;;;;;;;5042445;28;19936;-78
2022/12/17 16:07:16;;;;;;;;;;;;;;;;;;5041170;28;19913;-74
2022/12/17 16:10:02;;;;;;;;;;;;;;;;;;5021602;28;20432;-75
2022/12/17 16:12:49;;;;;;;;;;;;;;;;;;5034096;28;20013;-76
2022/12/17 16:15:35;;;;;;;;;;;;;;;;;;5039750;28;19928;-78
2022/12/17 16:18:22;;;;;;;;;;;;;;;;;;5036414;28;19913;-82
2022/12/17 16:21:09;;;;;;;;;;;;;;;;;;5041129;28;19921;-81
2022/12/17 16:23:55;;;;;;;;;;;;;;;;;;5045910;28;20642;-81
2022/12/17 16:26:42;;;;;;;;;;;;;;;;;;5026904;28;20528;-80
2022/12/17 16:29:28;;;;;;;;;;;;;;;;;;5033647;28;19920;-80
2022/12/17 16:32:15;;;;;;;;;;;;;;;;;;5047557;28;19912;-82
2022/12/17 16:35:03;;;;;;;;;;;;;;;;;;5042387;28;19916;-81
2022/12/17 16:37:50;;;;;;;;;;;;;;;;;;5037692;28;19923;-82
2022/12/17 16:40:36;;;;;;;;;;;;;;;;;;5019539;28;19916;-80
2022/12/17 16:43:22;;;;;;;;;;;;;;;;;;5041075;28;19932;-81
2022/12/17 16:46:09;;;;;;;;;;;;;;;;;;5034969;28;19917;-79
2022/12/17 16:48:55;;;;;;;;;;;;;;;;;;5040216;28;19909;-79
2022/12/17 16:51:42;;;;;;;;;;;;;;;;;;5034903;28;19920;-79
2022/12/17 16:54:28;;;;;;;;;;;;;;;;;;5046728;28;19931;-82
2022/12/17 16:57:15;;;;;;;;;;;;;;;;;;5045462;28;20022;-77
2022/12/17 17:00:03;;;;;;;;;;;;;;;;;;5038733;28;20273;-79
2022/12/17 17:02:49;;;;;;;;;;;;;;;;;;5046724;28;19913;-81
2022/12/17 17:05:36;;;;;;;;;;;;;;;;;;5042838;28;20635;-81
2022/12/17 17:08:22;;;;;;;;;;;;;;;;;;5042658;28;19917;-79
2022/12/17 17:11:09;;;;;;;;;;;;;;;;;;5021270;28;19920;-81
2022/12/17 17:13:55;;;;;;;;;;;;;;;;;;5036088;28;19920;-79
2022/12/17 17:16:42;;;;;;;;;;;;;;;;;;5040394;28;19913;-78
2022/12/17 17:19:28;;;;;;;;;;;;;;;;;;5040345;28;19921;-79
2022/12/17 17:22:15;;;;;;;;;;;;;;;;;;5044356;28;19924;-76
2022/12/17 17:25:01;;;;;;;;;;;;;;;;;;5040107;28;19936;-85
2022/12/17 17:27:48;;;;;;;;;;;;;;;;;;5038623;28;19909;-87
2022/12/17 17:30:34;;;;;;;;;;;;;;;;;;5036502;28;19913;-87
2022/12/17 17:33:21;;;;;;;;;;;;;;;;;;5030681;28;19923;-87
2022/12/17 17:36:07;;;;;;;;;;;;;;;;;;5037612;28;19917;-88
2022/12/17 17:38:54;;;;;;;;;;;;;;;;;;5031159;28;19913;-87
2022/12/17 17:41:40;;;;;;;;;;;;;;;;;;5031431;28;19925;-87
2022/12/17 17:44:27;;;;;;;;;;;;;;;;;;5030389;28;19925;-86
2022/12/17 17:47:13;;;;;;;;;;;;;;;;;;5036343;28;20375;-86
2022/12/17 17:50:00;;;;;;;;;;;;;;;;;;5029900;28;19925;-87
2022/12/17 17:52:46;;;;;;;;;;;;;;;;;;5034233;28;19975;-86
2022/12/17 17:55:32;;;;;;;;;;;;;;;;;;5035174;28;20614;-88
2022/12/17 17:58:19;;;;;;;;;;;;;;;;;;5032881;28;19917;-87
2022/12/17 18:01:05;;;;;;;;;;;;;;;;;;5032706;28;19917;-88
2022/12/17 18:03:52;;;;;;;;;;;;;;;;;;5032510;28;19925;-88
2022/12/17 18:06:38;;;;;;;;;;;;;;;;;;5035348;28;19928;-87
2022/12/17 18:09:26;;;;;;;;;;;;;;;;;;5037843;28;20288;-87
2022/12/17 18:15:18;;;;;;;;;;;;;;;;;;5039026;28;19928;-90
2022/12/17 18:18:04;;;;;;;;;;;;;;;;;;5032190;28;19919;-91
2022/12/17 18:20:51;;;;;;;;;;;;;;;;;;5039258;28;20701;-90
2022/12/17 18:23:38;;;;;;;;;;;;;;;;;;5029636;28;19921;-88
2022/12/17 18:26:24;;;;;;;;;;;;;;;;;;5030457;28;19923;-89
2022/12/17 18:29:11;;;;;;;;;;;;;;;;;;5022077;28;20318;-89
2022/12/17 18:31:58;;;;;;;;;;;;;;;;;;5031352;28;19925;-87
2022/12/17 18:34:44;;;;;;;;;;;;;;;;;;5029304;28;20379;-87
2022/12/17 18:37:31;;;;;;;;;;;;;;;;;;5038431;28;19913;-88
2022/12/17 18:40:17;;;;;;;;;;;;;;;;;;5040711;28;19920;-88
2022/12/17 18:43:22;;;;;;;;;;;;;;;;;;5035348;28;19928;-88
2022/12/17 18:46:08;;;;;;;;;;;;;;;;;;5021905;28;20458;-87
2022/12/17 18:48:55;;;;;;;;;;;;;;;;;;5030869;28;19920;-86
2022/12/17 18:51:42;;;;;;;;;;;;;;;;;;5023221;28;19927;-88
2022/12/17 18:54:28;;;;;;;;;;;;;;;;;;5033149;28;20663;-86
2022/12/17 18:57:15;;;;;;;;;;;;;;;;;;5020055;28;19917;-88
2022/12/17 19:00:02;;;;;;;;;;;;;;;;;;5036376;28;19920;-88
2022/12/17 19:02:49;;;;;;;;;;;;;;;;;;5032537;28;19917;-86
2022/12/17 19:05:35;;;;;;;;;;;;;;;;;;5029932;28;20336;-85
2022/12/17 19:08:22;;;;;;;;;;;;;;;;;;5033767;28;19920;-87
2022/12/17 19:11:08;;;;;;;;;;;;;;;;;;5032673;28;19924;-86
2022/12/17 19:13:55;;;;;;;;;;;;;;;;;;5018566;28;19917;-87
2022/12/17 19:16:41;;;;;;;;;;;;;;;;;;5021472;28;20379;-87
2022/12/17 19:19:28;;;;;;;;;;;;;;;;;;5023591;28;19917;-87
2022/12/17 19:22:15;;;;;;;;;;;;;;;;;;5032488;28;19924;-87
2022/12/17 19:25:01;;;;;;;;;;;;;;;;;;5029006;28;19944;-85
2022/12/17 19:27:48;;;;;;;;;;;;;;;;;;5035153;28;20369;-87
2022/12/17 19:30:34;;;;;;;;;;;;;;;;;;5048860;28;19923;-88
2022/12/17 19:33:20;;;;;;;;;;;;;;;;;;5045578;28;19917;-88
2022/12/17 19:36:07;;;;;;;;;;;;;;;;;;5043882;28;20388;-88
2022/12/17 19:38:54;;;;;;;;;;;;;;;;;;5027427;28;19932;-88
2022/12/17 19:41:41;;;;;;;;;;;;;;;;;;5034971;28;20368;-87
2022/12/17 19:44:27;;;;;;;;;;;;;;;;;;5035174;28;19920;-87
2022/12/17 19:47:14;;;;;;;;;;;;;;;;;;5034074;28;20561;-86
2022/12/17 19:50:00;;;;;;;;;;;;;;;;;;5033428;28;19913;-87
2022/12/17 19:52:47;;;;;;;;;;;;;;;;;;5032400;28;20397;-87
2022/12/17 19:55:33;;;;;;;;;;;;;;;;;;5035864;28;19924;-88
2022/12/17 19:58:20;;;;;;;;;;;;;;;;;;5036564;28;19917;-88
2022/12/17 20:01:06;;;;;;;;;;;;;;;;;;5031808;28;19917;-87
2022/12/17 20:03:53;;;;;;;;;;;;;;;;;;5046291;28;20296;-86
2022/12/17 20:06:39;;;;;;;;;;;;;;;;;;5034322;28;19921;-87
2022/12/17 20:09:26;;;;;;;;;;;;;;;;;;5030525;28;19917;-86
2022/12/17 20:12:12;;;;;;;;;;;;;;;;;;5032959;28;19928;-85
2022/12/17 20:14:59;;;;;;;;;;;;;;;;;;5035863;28;20137;-87
2022/12/17 20:17:45;;;;;;;;;;;;;;;;;;5040339;28;20284;-85
2022/12/17 20:20:32;;;;;;;;;;;;;;;;;;5038913;28;19913;-88
2022/12/17 20:23:18;;;;;;;;;;;;;;;;;;5035012;28;19917;-86
2022/12/17 20:26:05;;;;;;;;;;;;;;;;;;5025115;28;19925;-90
2022/12/17 20:28:51;;;;;;;;;;;;;;;;;;5034311;28;20346;-89
2022/12/17 20:31:38;;;;;;;;;;;;;;;;;;5036183;28;19917;-86
2022/12/17 20:34:24;;;;;;;;;;;;;;;;;;5037633;28;19913;-88
2022/12/17 20:37:11;;;;;;;;;;;;;;;;;;5037091;28;19917;-87
2022/12/17 20:39:57;;;;;;;;;;;;;;;;;;5037051;28;19913;-86
2022/12/17 20:42:44;;;;;;;;;;;;;;;;;;5034708;28;20399;-86
2022/12/17 20:45:30;;;;;;;;;;;;;;;;;;5031815;28;20372;-85
2022/12/17 20:48:17;;;;;;;;;;;;;;;;;;5035866;28;19913;-89
2022/12/17 20:51:04;;;;;;;;;;;;;;;;;;5034823;28;20546;-87
2022/12/17 20:53:51;;;;;;;;;;;;;;;;;;5041957;28;19909;-87
2022/12/17 20:56:37;;;;;;;;;;;;;;;;;;5033855;28;19921;-86
2022/12/17 20:59:24;;;;;;;;;;;;;;;;;;5039988;28;19936;-85
2022/12/17 21:02:10;;;;;;;;;;;;;;;;;;5035090;28;19917;-88
2022/12/17 21:04:57;;;;;;;;;;;;;;;;;;5028638;28;20424;-87
2022/12/17 21:07:43;;;;;;;;;;;;;;;;;;5027160;28;19927;-90
2022/12/17 21:10:30;;;;;;;;;;;;;;;;;;5039441;28;19923;-88
2022/12/17 21:13:29;;;;;;;;;;;;;;;;;;5037328;28;20447;-89
2022/12/17 21:16:16;;;;;;;;;;;;;;;;;;5035115;28;19917;-86
2022/12/17 21:19:02;;;;;;;;;;;;;;;;;;5038898;28;20443;-86
2022/12/17 21:21:49;;;;;;;;;;;;;;;;;;5031984;28;19917;-85
2022/12/17 21:24:35;;;;;;;;;;;;;;;;;;5043790;28;19931;-85
2022/12/17 21:27:22;;;;;;;;;;;;;;;;;;5032419;28;19920;-86
2022/12/17 21:30:08;;;;;;;;;;;;;;;;;;5038600;28;19917;-87
2022/12/17 21:32:55;;;;;;;;;;;;;;;;;;5031494;28;19913;-87
2022/12/17 21:35:41;;;;;;;;;;;;;;;;;;5032273;28;19913;-87
2022/12/17 21:38:28;;;;;;;;;;;;;;;;;;5029021;28;19920;-87
2022/12/17 21:41:14;;;;;;;;;;;;;;;;;;5033284;28;19916;-87
2022/12/17 21:44:01;;;;;;;;;;;;;;;;;;5028819;28;19917;-87
2022/12/17 21:46:50;;;;;;;;;;;;;;;;;;5039490;28;19923;-88
2022/12/17 21:49:36;;;;;;;;;;;;;;;;;;5031109;28;19920;-86
2022/12/17 21:52:22;;;;;;;;;;;;;;;;;;5028133;28;20471;-87
2022/12/17 21:55:09;;;;;;;;;;;;;;;;;;5034713;28;19927;-85
2022/12/17 21:57:57;;;;;;;;;;;;;;;;;;5033679;28;19913;-87
2022/12/17 22:00:43;;;;;;;;;;;;;;;;;;5033651;28;19921;-87
2022/12/17 22:03:30;;;;;;;;;;;;;;;;;;5025741;28;19912;-83
2022/12/17 22:06:16;;;;;;;;;;;;;;;;;;5037238;28;19925;-83
2022/12/17 22:09:03;;;;;;;;;;;;;;;;;;5036556;28;19923;-82
2022/12/17 22:14:01;;;;;;;;;;;;;;;;;;5043434;28;19921;-82
2022/12/17 22:14:56;;;;;;;;;;;;;;;;;;5046686;28;19912;-81
2022/12/17 22:17:42;;;;;;;;;;;;;;;;;;5046476;28;19916;-81
2022/12/17 22:20:29;;;;;;;;;;;;;;;;;;5045714;28;19944;-81
2022/12/17 22:23:15;;;;;;;;;;;;;;;;;;5043803;28;19928;-81
2022/12/17 22:26:01;;;;;;;;;;;;;;;;;;5042325;28;19920;-82
2022/12/17 22:28:48;;;;;;;;;;;;;;;;;;5044738;28;19920;-80
2022/12/17 22:34:40;;;;;;;;;;;;;;;;;;5037592;28;19917;-82
2022/12/17 22:37:26;;;;;;;;;;;;;;;;;;5041333;28;19917;-81
2022/12/17 22:40:13;;;;;;;;;;;;;;;;;;5044255;28;19913;-81
2022/12/17 22:46:07;;;;;;;;;;;;;;;;;;5023505;28;20148;-81
2022/12/17 22:48:54;;;;;;;;;;;;;;;;;;5035962;28;20372;-81
2022/12/17 22:51:40;;;;;;;;;;;;;;;;;;5043550;28;19919;-81
2022/12/17 22:54:27;;;;;;;;;;;;;;;;;;5038658;28;19941;-83
2022/12/17 22:57:13;;;;;;;;;;;;;;;;;;5043134;28;20721;-85
2022/12/17 23:00:02;;;;;;;;;;;;;;;;;;5042990;28;19917;-86
2022/12/17 23:02:49;;;;;;;;;;;;;;;;;;5030479;28;19951;-86
2022/12/17 23:05:35;;;;;;;;;;;;;;;;;;5044789;28;19920;-87
2022/12/17 23:08:22;;;;;;;;;;;;;;;;;;5028450;28;19924;-84
2022/12/17 23:11:11;;;;;;;;;;;;;;;;;;5035025;28;19913;-85
2022/12/17 23:13:58;;;;;;;;;;;;;;;;;;5029694;28;20293;-85
2022/12/17 23:16:44;;;;;;;;;;;;;;;;;;5035282;28;20380;-86
2022/12/17 23:19:31;;;;;;;;;;;;;;;;;;5032093;28;19920;-86
2022/12/17 23:22:17;;;;;;;;;;;;;;;;;;5036929;28;19913;-87
2022/12/17 23:25:04;;;;;;;;;;;;;;;;;;5034185;28;19925;-86
2022/12/17 23:27:52;;;;;;;;;;;;;;;;;;5042523;28;19916;-86
2022/12/17 23:30:39;;;;;;;;;;;;;;;;;;5036660;28;20360;-87
2022/12/17 23:33:25;;;;;;;;;;;;;;;;;;5035883;28;19913;-87
2022/12/17 23:36:11;;;;;;;;;;;;;;;;;;5041679;28;19913;-87
2022/12/17 23:38:58;;;;;;;;;;;;;;;;;;5035322;28;19917;-88
2022/12/17 23:41:45;;;;;;;;;;;;;;;;;;5036240;28;20372;-86
2022/12/17 23:44:31;;;;;;;;;;;;;;;;;;5032361;28;19917;-86
2022/12/17 23:47:18;;;;;;;;;;;;;;;;;;5030887;28;19909;-89
2022/12/17 23:50:04;;;;;;;;;;;;;;;;;;5043787;28;19987;-85
2022/12/17 23:52:51;;;;;;;;;;;;;;;;;;5039982;28;19916;-86
2022/12/17 23:55:37;;;;;;;;;;;;;;;;;;5041142;28;19914;-84
2022/12/17 23:58:23;;;;;;;;;;;;;;;;;;5045170;28;20292;-87
